sensor_id;sensor_type;location;lat;lon;timestamp;pressure;altitude;pressure_sealevel;temperature;humidity
15678;BME280;7939;50.814;6.368;2023-12-29T00:00:00;99363.50;;;12.45;62.24
15678;BME280;7939;50.814;6.368;2023-12-29T00:02:29;99369.50;;;12.46;61.68
15678;BME280;7939;50.814;6.368;2023-12-29T00:04:56;99358.38;;;12.47;62.18
15678;BME280;7939;50.814;6.368;2023-12-29T00:07:23;99368.56;;;12.50;62.08
15678;BME280;7939;50.814;6.368;2023-12-29T00:09:49;99382.25;;;12.49;62.45
15678;BME280;7939;50.814;6.368;2023-12-29T00:12:16;99352.34;;;12.49;62.29
15678;BME280;7939;50.814;6.368;2023-12-29T00:14:43;99360.06;;;12.48;62.18
15678;BME280;7939;50.814;6.368;2023-12-29T00:17:10;99354.03;;;12.52;62.81
15678;BME280;7939;50.814;6.368;2023-12-29T00:19:38;99355.78;;;12.48;62.05
15678;BME280;7939;50.814;6.368;2023-12-29T00:22:04;99360.00;;;12.51;62.68
15678;BME280;7939;50.814;6.368;2023-12-29T00:24:31;99358.31;;;12.51;61.96
15678;BME280;7939;50.814;6.368;2023-12-29T00:26:58;99344.66;;;12.49;61.99
15678;BME280;7939;50.814;6.368;2023-12-29T00:29:26;99344.63;;;12.52;62.09
15678;BME280;7939;50.814;6.368;2023-12-29T00:31:58;99330.16;;;12.48;62.28
15678;BME280;7939;50.814;6.368;2023-12-29T00:34:25;99342.91;;;12.53;62.57
15678;BME280;7939;50.814;6.368;2023-12-29T00:36:53;99336.13;;;12.47;61.61
15678;BME280;7939;50.814;6.368;2023-12-29T00:39:20;99331.03;;;12.44;62.03
15678;BME280;7939;50.814;6.368;2023-12-29T00:41:54;99345.53;;;12.48;61.87
15678;BME280;7939;50.814;6.368;2023-12-29T00:44:20;99337.84;;;12.48;62.48
15678;BME280;7939;50.814;6.368;2023-12-29T00:46:47;99331.97;;;12.40;62.76
15678;BME280;7939;50.814;6.368;2023-12-29T00:49:14;99330.22;;;12.42;62.97
15678;BME280;7939;50.814;6.368;2023-12-29T00:51:41;99325.91;;;12.44;62.38
15678;BME280;7939;50.814;6.368;2023-12-29T00:54:09;99327.66;;;12.42;62.31
15678;BME280;7939;50.814;6.368;2023-12-29T00:56:35;99318.25;;;12.42;62.85
15678;BME280;7939;50.814;6.368;2023-12-29T00:59:02;99319.19;;;12.38;61.68
15678;BME280;7939;50.814;6.368;2023-12-29T01:01:33;99307.19;;;12.40;62.24
15678;BME280;7939;50.814;6.368;2023-12-29T01:04:00;99317.38;;;12.43;61.88
15678;BME280;7939;50.814;6.368;2023-12-29T01:06:26;99308.84;;;12.43;62.55
15678;BME280;7939;50.814;6.368;2023-12-29T01:08:53;99310.53;;;12.46;61.97
15678;BME280;7939;50.814;6.368;2023-12-29T01:11:21;99313.94;;;12.46;63.10
15678;BME280;7939;50.814;6.368;2023-12-29T01:13:48;99313.09;;;12.46;62.18
15678;BME280;7939;50.814;6.368;2023-12-29T01:16:15;99312.34;;;12.39;62.71
15678;BME280;7939;50.814;6.368;2023-12-29T01:18:41;99326.78;;;12.45;62.78
15678;BME280;7939;50.814;6.368;2023-12-29T01:21:08;99309.72;;;12.42;62.96
15678;BME280;7939;50.814;6.368;2023-12-29T01:23:35;99319.97;;;12.42;62.39
15678;BME280;7939;50.814;6.368;2023-12-29T01:26:02;99305.41;;;12.46;63.05
15678;BME280;7939;50.814;6.368;2023-12-29T01:28:30;99287.47;;;12.44;63.25
15678;BME280;7939;50.814;6.368;2023-12-29T01:30:57;99313.97;;;12.43;62.46
15678;BME280;7939;50.814;6.368;2023-12-29T01:33:23;99299.50;;;12.40;63.45
15678;BME280;7939;50.814;6.368;2023-12-29T01:35:50;99320.81;;;12.42;62.45
15678;BME280;7939;50.814;6.368;2023-12-29T01:38:17;99308.06;;;12.39;63.17
15678;BME280;7939;50.814;6.368;2023-12-29T01:40:44;99298.59;;;12.43;63.03
15678;BME280;7939;50.814;6.368;2023-12-29T01:43:11;99301.19;;;12.41;62.25
15678;BME280;7939;50.814;6.368;2023-12-29T01:45:39;99291.75;;;12.43;61.86
15678;BME280;7939;50.814;6.368;2023-12-29T01:48:07;99303.91;;;12.32;62.46
15678;BME280;7939;50.814;6.368;2023-12-29T01:50:35;99290.13;;;12.39;62.31
15678;BME280;7939;50.814;6.368;2023-12-29T01:53:03;99283.22;;;12.43;62.47
15678;BME280;7939;50.814;6.368;2023-12-29T01:55:32;99274.75;;;12.38;62.55
15678;BME280;7939;50.814;6.368;2023-12-29T01:57:59;99290.13;;;12.38;63.10
15678;BME280;7939;50.814;6.368;2023-12-29T02:00:26;99299.44;;;12.43;63.37
15678;BME280;7939;50.814;6.368;2023-12-29T02:02:54;99302.09;;;12.37;61.94
15678;BME280;7939;50.814;6.368;2023-12-29T02:05:23;99301.25;;;12.38;62.65
15678;BME280;7939;50.814;6.368;2023-12-29T02:07:51;99290.06;;;12.42;62.38
15678;BME280;7939;50.814;6.368;2023-12-29T02:10:21;99293.47;;;12.43;63.03
15678;BME280;7939;50.814;6.368;2023-12-29T02:12:48;99299.47;;;12.42;62.71
15678;BME280;7939;50.814;6.368;2023-12-29T02:15:15;99307.13;;;12.43;62.08
15678;BME280;7939;50.814;6.368;2023-12-29T02:17:45;99298.69;;;12.38;63.28
15678;BME280;7939;50.814;6.368;2023-12-29T02:20:16;99298.66;;;12.40;62.89
15678;BME280;7939;50.814;6.368;2023-12-29T02:22:43;99300.38;;;12.39;62.92
15678;BME280;7939;50.814;6.368;2023-12-29T02:25:11;99292.69;;;12.39;62.31
15678;BME280;7939;50.814;6.368;2023-12-29T02:27:43;99279.03;;;12.39;63.04
15678;BME280;7939;50.814;6.368;2023-12-29T02:30:21;99303.72;;;12.43;63.51
15678;BME280;7939;50.814;6.368;2023-12-29T02:32:49;99296.97;;;12.39;62.38
15678;BME280;7939;50.814;6.368;2023-12-29T02:35:21;99296.94;;;12.40;62.45
15678;BME280;7939;50.814;6.368;2023-12-29T02:37:49;99293.50;;;12.41;62.67
15678;BME280;7939;50.814;6.368;2023-12-29T02:40:18;99294.31;;;12.43;63.40
15678;BME280;7939;50.814;6.368;2023-12-29T02:42:46;99280.72;;;12.40;63.41
15678;BME280;7939;50.814;6.368;2023-12-29T02:45:13;99262.88;;;12.34;63.45
15678;BME280;7939;50.814;6.368;2023-12-29T02:47:41;99280.78;;;12.35;63.41
15678;BME280;7939;50.814;6.368;2023-12-29T02:50:08;99253.34;;;12.42;64.08
15678;BME280;7939;50.814;6.368;2023-12-29T02:52:35;99268.78;;;12.37;64.03
15678;BME280;7939;50.814;6.368;2023-12-29T02:55:02;99284.16;;;12.37;63.89
15678;BME280;7939;50.814;6.368;2023-12-29T02:57:30;99290.16;;;12.36;63.61
15678;BME280;7939;50.814;6.368;2023-12-29T02:59:57;99281.56;;;12.40;63.13
15678;BME280;7939;50.814;6.368;2023-12-29T03:02:24;99273.88;;;12.40;63.33
15678;BME280;7939;50.814;6.368;2023-12-29T03:04:51;99280.69;;;12.41;63.20
15678;BME280;7939;50.814;6.368;2023-12-29T03:07:18;99265.31;;;12.41;63.75
15678;BME280;7939;50.814;6.368;2023-12-29T03:09:44;99265.31;;;12.41;63.16
15678;BME280;7939;50.814;6.368;2023-12-29T03:12:11;99279.03;;;12.39;63.04
15678;BME280;7939;50.814;6.368;2023-12-29T03:14:39;99267.84;;;12.45;63.15
15678;BME280;7939;50.814;6.368;2023-12-29T03:17:06;99255.00;;;12.46;63.23
15678;BME280;7939;50.814;6.368;2023-12-29T03:19:32;99272.84;;;12.52;63.82
15678;BME280;7939;50.814;6.368;2023-12-29T03:21:59;99248.09;;;12.50;63.45
15678;BME280;7939;50.814;6.368;2023-12-29T03:24:26;99244.69;;;12.49;64.39
15678;BME280;7939;50.814;6.368;2023-12-29T03:26:52;99240.47;;;12.47;63.13
15678;BME280;7939;50.814;6.368;2023-12-29T03:29:19;99241.25;;;12.50;63.75
15678;BME280;7939;50.814;6.368;2023-12-29T03:31:49;99254.91;;;12.52;63.59
15678;BME280;7939;50.814;6.368;2023-12-29T03:34:15;99249.81;;;12.49;63.25
15678;BME280;7939;50.814;6.368;2023-12-29T03:36:42;99239.53;;;12.51;63.63
15678;BME280;7939;50.814;6.368;2023-12-29T03:39:08;99237.03;;;12.48;63.18
15678;BME280;7939;50.814;6.368;2023-12-29T03:41:35;99240.44;;;12.48;63.08
15678;BME280;7939;50.814;6.368;2023-12-29T03:44:02;99238.75;;;12.47;63.23
15678;BME280;7939;50.814;6.368;2023-12-29T03:46:29;99236.22;;;12.44;63.91
15678;BME280;7939;50.814;6.368;2023-12-29T03:48:57;99242.22;;;12.43;63.09
15678;BME280;7939;50.814;6.368;2023-12-29T03:51:24;99232.84;;;12.42;63.71
15678;BME280;7939;50.814;6.368;2023-12-29T03:53:50;99249.94;;;12.41;63.88
15678;BME280;7939;50.814;6.368;2023-12-29T03:56:18;99248.19;;;12.45;63.02
15678;BME280;7939;50.814;6.368;2023-12-29T03:58:45;99248.13;;;12.48;63.54
15678;BME280;7939;50.814;6.368;2023-12-29T04:01:12;99252.34;;;12.51;63.61
15678;BME280;7939;50.814;6.368;2023-12-29T04:03:40;99249.81;;;12.49;62.64
15678;BME280;7939;50.814;6.368;2023-12-29T04:06:08;99243.94;;;12.42;64.22
15678;BME280;7939;50.814;6.368;2023-12-29T04:08:36;99257.53;;;12.48;63.69
15678;BME280;7939;50.814;6.368;2023-12-29T04:11:03;99264.41;;;12.44;63.42
15678;BME280;7939;50.814;6.368;2023-12-29T04:13:30;99244.75;;;12.46;63.68
15678;BME280;7939;50.814;6.368;2023-12-29T04:15:57;99255.84;;;12.47;63.39
15678;BME280;7939;50.814;6.368;2023-12-29T04:18:24;99249.00;;;12.47;63.54
15678;BME280;7939;50.814;6.368;2023-12-29T04:20:51;99255.81;;;12.48;64.04
15678;BME280;7939;50.814;6.368;2023-12-29T04:23:19;99264.38;;;12.47;63.19
15678;BME280;7939;50.814;6.368;2023-12-29T04:25:45;99230.19;;;12.48;63.23
15678;BME280;7939;50.814;6.368;2023-12-29T04:28:12;99251.56;;;12.47;63.53
15678;BME280;7939;50.814;6.368;2023-12-29T04:30:39;99263.56;;;12.45;64.06
15678;BME280;7939;50.814;6.368;2023-12-29T04:33:05;99251.50;;;12.50;63.68
15678;BME280;7939;50.814;6.368;2023-12-29T04:35:32;99272.94;;;12.46;63.56
15678;BME280;7939;50.814;6.368;2023-12-29T04:37:59;99266.03;;;12.50;64.19
15678;BME280;7939;50.814;6.368;2023-12-29T04:40:27;99268.56;;;12.53;64.20
15678;BME280;7939;50.814;6.368;2023-12-29T04:42:54;99267.72;;;12.51;64.04
15678;BME280;7939;50.814;6.368;2023-12-29T04:45:21;99272.84;;;12.52;64.16
15678;BME280;7939;50.814;6.368;2023-12-29T04:47:47;99277.13;;;12.50;64.45
15678;BME280;7939;50.814;6.368;2023-12-29T04:50:14;99264.25;;;12.55;64.29
15678;BME280;7939;50.814;6.368;2023-12-29T04:52:41;99274.50;;;12.55;64.31
15678;BME280;7939;50.814;6.368;2023-12-29T04:55:08;99286.50;;;12.53;64.07
15678;BME280;7939;50.814;6.368;2023-12-29T04:57:36;99272.75;;;12.58;64.55
15678;BME280;7939;50.814;6.368;2023-12-29T05:00:03;99277.91;;;12.55;64.38
15678;BME280;7939;50.814;6.368;2023-12-29T05:02:30;99277.91;;;12.55;64.21
15678;BME280;7939;50.814;6.368;2023-12-29T05:04:57;99287.28;;;12.56;64.09
15678;BME280;7939;50.814;6.368;2023-12-29T05:07:24;99297.53;;;12.56;64.83
15678;BME280;7939;50.814;6.368;2023-12-29T05:09:51;99293.31;;;12.54;64.72
15678;BME280;7939;50.814;6.368;2023-12-29T05:12:18;99303.47;;;12.60;64.21
15678;BME280;7939;50.814;6.368;2023-12-29T05:14:46;99293.25;;;12.58;63.58
15678;BME280;7939;50.814;6.368;2023-12-29T05:17:12;99292.47;;;12.53;63.93
15678;BME280;7939;50.814;6.368;2023-12-29T05:19:40;99291.59;;;12.54;63.69
15678;BME280;7939;50.814;6.368;2023-12-29T05:22:06;99285.63;;;12.54;64.13
15678;BME280;7939;50.814;6.368;2023-12-29T05:24:33;99283.91;;;12.54;64.49
15678;BME280;7939;50.814;6.368;2023-12-29T05:27:00;99285.66;;;12.51;64.15
15678;BME280;7939;50.814;6.368;2023-12-29T05:29:26;99286.53;;;12.51;63.54
15678;BME280;7939;50.814;6.368;2023-12-29T05:31:55;99291.63;;;12.53;64.36
15678;BME280;7939;50.814;6.368;2023-12-29T05:34:21;99285.63;;;12.54;63.49
15678;BME280;7939;50.814;6.368;2023-12-29T05:36:48;99294.16;;;12.54;64.13
15678;BME280;7939;50.814;6.368;2023-12-29T05:39:15;99286.53;;;12.51;63.53
15678;BME280;7939;50.814;6.368;2023-12-29T05:41:42;99293.31;;;12.54;64.09
15678;BME280;7939;50.814;6.368;2023-12-29T05:44:08;99282.16;;;12.56;63.74
15678;BME280;7939;50.814;6.368;2023-12-29T05:46:35;99289.09;;;12.51;63.76
15678;BME280;7939;50.814;6.368;2023-12-29T05:49:03;99288.28;;;12.48;63.96
15678;BME280;7939;50.814;6.368;2023-12-29T05:51:30;99289.09;;;12.50;63.87
15678;BME280;7939;50.814;6.368;2023-12-29T05:53:57;99273.78;;;12.47;63.75
15678;BME280;7939;50.814;6.368;2023-12-29T05:56:23;99283.09;;;12.51;64.10
15678;BME280;7939;50.814;6.368;2023-12-29T05:58:50;99284.00;;;12.48;63.24
15678;BME280;7939;50.814;6.368;2023-12-29T06:01:17;99283.09;;;12.51;63.99
15678;BME280;7939;50.814;6.368;2023-12-29T06:03:44;99272.09;;;12.46;63.98
15678;BME280;7939;50.814;6.368;2023-12-29T06:06:12;99279.78;;;12.44;64.56
15678;BME280;7939;50.814;6.368;2023-12-29T06:08:38;99276.31;;;12.48;63.73
15678;BME280;7939;50.814;6.368;2023-12-29T06:11:05;99276.25;;;12.53;63.94
15678;BME280;7939;50.814;6.368;2023-12-29T06:13:32;99272.88;;;12.49;63.46
15678;BME280;7939;50.814;6.368;2023-12-29T06:15:58;99266.88;;;12.52;63.79
15678;BME280;7939;50.814;6.368;2023-12-29T06:18:25;99266.03;;;12.50;64.85
15678;BME280;7939;50.814;6.368;2023-12-29T06:20:52;99262.66;;;12.48;63.72
15678;BME280;7939;50.814;6.368;2023-12-29T06:23:20;99265.28;;;12.43;63.90
15678;BME280;7939;50.814;6.368;2023-12-29T06:25:46;99260.16;;;12.45;64.52
15678;BME280;7939;50.814;6.368;2023-12-29T06:28:13;99254.00;;;12.55;63.32
15678;BME280;7939;50.814;6.368;2023-12-29T06:30:40;99269.44;;;12.52;64.19
15678;BME280;7939;50.814;6.368;2023-12-29T06:33:07;99260.91;;;12.50;64.38
15678;BME280;7939;50.814;6.368;2023-12-29T06:35:34;99262.72;;;12.43;63.66
15678;BME280;7939;50.814;6.368;2023-12-29T06:38:00;99274.66;;;12.46;64.95
15678;BME280;7939;50.814;6.368;2023-12-29T06:40:28;99258.41;;;12.47;64.38
15678;BME280;7939;50.814;6.368;2023-12-29T06:42:55;99261.84;;;12.46;63.81
15678;BME280;7939;50.814;6.368;2023-12-29T06:45:22;99257.69;;;12.38;64.67
15678;BME280;7939;50.814;6.368;2023-12-29T06:47:48;99249.03;;;12.46;65.00
15678;BME280;7939;50.814;6.368;2023-12-29T06:50:15;99245.56;;;12.48;63.67
15678;BME280;7939;50.814;6.368;2023-12-29T06:52:42;99244.78;;;12.45;64.03
15678;BME280;7939;50.814;6.368;2023-12-29T06:55:09;99233.66;;;12.46;64.55
15678;BME280;7939;50.814;6.368;2023-12-29T06:57:37;99243.91;;;12.44;64.59
15678;BME280;7939;50.814;6.368;2023-12-29T07:00:05;99222.56;;;12.45;63.82
15678;BME280;7939;50.814;6.368;2023-12-29T07:02:32;99222.47;;;12.50;63.42
15678;BME280;7939;50.814;6.368;2023-12-29T07:04:59;99220.78;;;12.49;64.26
15678;BME280;7939;50.814;6.368;2023-12-29T07:07:26;99212.22;;;12.50;63.95
15678;BME280;7939;50.814;6.368;2023-12-29T07:09:53;99215.63;;;12.52;64.29
15678;BME280;7939;50.814;6.368;2023-12-29T07:12:20;99219.03;;;12.51;64.72
15678;BME280;7939;50.814;6.368;2023-12-29T07:14:48;99214.84;;;12.47;63.78
15678;BME280;7939;50.814;6.368;2023-12-29T07:17:14;99216.53;;;12.48;63.82
15678;BME280;7939;50.814;6.368;2023-12-29T07:19:41;99202.03;;;12.47;63.57
15678;BME280;7939;50.814;6.368;2023-12-29T07:22:08;99218.19;;;12.52;63.83
15678;BME280;7939;50.814;6.368;2023-12-29T07:24:35;99219.94;;;12.48;63.73
15678;BME280;7939;50.814;6.368;2023-12-29T07:27:02;99239.53;;;12.52;64.45
15678;BME280;7939;50.814;6.368;2023-12-29T07:29:29;99238.69;;;12.52;64.46
15678;BME280;7939;50.814;6.368;2023-12-29T07:31:57;99237.88;;;12.48;64.53
15678;BME280;7939;50.814;6.368;2023-12-29T07:34:24;99224.16;;;12.51;64.37
15678;BME280;7939;50.814;6.368;2023-12-29T07:36:51;99241.19;;;12.55;64.08
15678;BME280;7939;50.814;6.368;2023-12-29T07:39:18;99237.88;;;12.48;64.96
15678;BME280;7939;50.814;6.368;2023-12-29T07:41:45;99236.13;;;12.52;65.89
15678;BME280;7939;50.814;6.368;2023-12-29T07:44:14;99235.22;;;12.54;65.69
15678;BME280;7939;50.814;6.368;2023-12-29T07:46:40;99241.22;;;12.53;65.75
15678;BME280;7939;50.814;6.368;2023-12-29T07:49:08;99246.31;;;12.55;64.86
15678;BME280;7939;50.814;6.368;2023-12-29T07:51:39;99242.91;;;12.54;65.46
15678;BME280;7939;50.814;6.368;2023-12-29T07:54:06;99250.56;;;12.57;66.12
15678;BME280;7939;50.814;6.368;2023-12-29T07:56:33;99242.00;;;12.57;65.49
15678;BME280;7939;50.814;6.368;2023-12-29T07:58:59;99249.78;;;12.52;66.50
15678;BME280;7939;50.814;6.368;2023-12-29T08:01:26;99252.25;;;12.57;66.45
15678;BME280;7939;50.814;6.368;2023-12-29T08:03:53;99257.38;;;12.57;66.68
15678;BME280;7939;50.814;6.368;2023-12-29T08:06:21;99260.81;;;12.57;66.08
15678;BME280;7939;50.814;6.368;2023-12-29T08:08:48;99247.09;;;12.60;66.64
15678;BME280;7939;50.814;6.368;2023-12-29T08:11:15;99247.13;;;12.57;66.62
15678;BME280;7939;50.814;6.368;2023-12-29T08:13:43;99244.56;;;12.58;66.96
15678;BME280;7939;50.814;6.368;2023-12-29T08:16:10;99250.53;;;12.59;66.54
15678;BME280;7939;50.814;6.368;2023-12-29T08:18:37;99255.63;;;12.60;65.98
15678;BME280;7939;50.814;6.368;2023-12-29T08:21:04;99249.69;;;12.58;66.83
15678;BME280;7939;50.814;6.368;2023-12-29T08:23:32;99260.75;;;12.60;66.38
15678;BME280;7939;50.814;6.368;2023-12-29T08:25:59;99268.47;;;12.59;67.13
15678;BME280;7939;50.814;6.368;2023-12-29T08:28:25;99265.97;;;12.54;67.60
15678;BME280;7939;50.814;6.368;2023-12-29T08:30:52;99271.91;;;12.58;67.19
15678;BME280;7939;50.814;6.368;2023-12-29T08:33:19;99277.81;;;12.61;66.74
15678;BME280;7939;50.814;6.368;2023-12-29T08:35:45;99274.47;;;12.56;67.22
15678;BME280;7939;50.814;6.368;2023-12-29T08:38:12;99280.44;;;12.58;66.90
15678;BME280;7939;50.814;6.368;2023-12-29T08:40:41;99265.03;;;12.60;67.37
15678;BME280;7939;50.814;6.368;2023-12-29T08:43:08;99283.81;;;12.60;66.68
15678;BME280;7939;50.814;6.368;2023-12-29T08:45:35;99288.09;;;12.60;66.99
15678;BME280;7939;50.814;6.368;2023-12-29T08:48:02;99287.25;;;12.59;67.13
15678;BME280;7939;50.814;6.368;2023-12-29T08:50:28;99288.09;;;12.60;67.23
15678;BME280;7939;50.814;6.368;2023-12-29T08:52:55;99284.69;;;12.59;67.41
15678;BME280;7939;50.814;6.368;2023-12-29T08:55:22;99291.59;;;12.54;68.57
15678;BME280;7939;50.814;6.368;2023-12-29T08:57:50;99276.19;;;12.56;67.74
15678;BME280;7939;50.814;6.368;2023-12-29T09:00:17;99288.13;;;12.57;68.93
15678;BME280;7939;50.814;6.368;2023-12-29T09:02:44;99285.53;;;12.60;67.97
15678;BME280;7939;50.814;6.368;2023-12-29T09:05:12;99277.88;;;12.57;67.65
15678;BME280;7939;50.814;6.368;2023-12-29T09:07:39;99288.94;;;12.60;67.32
15678;BME280;7939;50.814;6.368;2023-12-29T09:10:06;99288.13;;;12.58;68.42
15678;BME280;7939;50.814;6.368;2023-12-29T09:12:36;99285.56;;;12.58;68.43
15678;BME280;7939;50.814;6.368;2023-12-29T09:15:05;99285.53;;;12.60;68.52
15678;BME280;7939;50.814;6.368;2023-12-29T09:17:32;99282.09;;;12.61;68.02
15678;BME280;7939;50.814;6.368;2023-12-29T09:19:59;99291.47;;;12.62;68.07
15678;BME280;7939;50.814;6.368;2023-12-29T09:22:25;99296.66;;;12.59;69.27
15678;BME280;7939;50.814;6.368;2023-12-29T09:24:53;99299.22;;;12.59;68.50
15678;BME280;7939;50.814;6.368;2023-12-29T09:27:20;99282.91;;;12.64;67.86
15678;BME280;7939;50.814;6.368;2023-12-29T09:29:47;99288.03;;;12.63;68.25
15678;BME280;7939;50.814;6.368;2023-12-29T09:32:15;99287.19;;;12.64;69.08
15678;BME280;7939;50.814;6.368;2023-12-29T09:34:42;99303.50;;;12.58;68.83
15678;BME280;7939;50.814;6.368;2023-12-29T09:37:09;99296.69;;;12.57;67.89
15678;BME280;7939;50.814;6.368;2023-12-29T09:39:35;99298.28;;;12.64;67.92
15678;BME280;7939;50.814;6.368;2023-12-29T09:42:03;99300.88;;;12.61;68.80
15678;BME280;7939;50.814;6.368;2023-12-29T09:44:32;99292.38;;;12.59;68.08
15678;BME280;7939;50.814;6.368;2023-12-29T09:47:03;99296.56;;;12.65;69.28
15678;BME280;7939;50.814;6.368;2023-12-29T09:49:37;99294.00;;;12.65;68.44
15678;BME280;7939;50.814;6.368;2023-12-29T09:52:05;99292.31;;;12.62;69.14
15678;BME280;7939;50.814;6.368;2023-12-29T09:54:33;99289.66;;;12.68;68.27
15678;BME280;7939;50.814;6.368;2023-12-29T09:57:03;99299.06;;;12.68;69.22
15678;BME280;7939;50.814;6.368;2023-12-29T09:59:32;99293.06;;;12.69;68.80
15678;BME280;7939;50.814;6.368;2023-12-29T10:02:02;99279.38;;;12.72;68.47
15678;BME280;7939;50.814;6.368;2023-12-29T10:04:29;99281.94;;;12.72;68.64
15678;BME280;7939;50.814;6.368;2023-12-29T10:07:02;99282.81;;;12.69;68.81
15678;BME280;7939;50.814;6.368;2023-12-29T10:09:32;99303.41;;;13.15;68.80
15678;BME280;7939;50.814;6.368;2023-12-29T10:12:01;99287.13;;;14.03;66.68
15678;BME280;7939;50.814;6.368;2023-12-29T10:14:34;99278.66;;;13.58;66.43
15678;BME280;7939;50.814;6.368;2023-12-29T10:17:06;99297.00;;;13.39;66.84
15678;BME280;7939;50.814;6.368;2023-12-29T10:19:39;99301.50;;;13.27;66.25
15678;BME280;7939;50.814;6.368;2023-12-29T10:22:11;99284.56;;;13.16;66.90
15678;BME280;7939;50.814;6.368;2023-12-29T10:24:42;99286.44;;;13.08;67.03
15678;BME280;7939;50.814;6.368;2023-12-29T10:27:11;99289.94;;;13.03;67.42
15678;BME280;7939;50.814;6.368;2023-12-29T10:29:38;99304.56;;;12.98;67.46
15678;BME280;7939;50.814;6.368;2023-12-29T10:32:05;99293.50;;;12.94;67.96
15678;BME280;7939;50.814;6.368;2023-12-29T10:34:32;99301.25;;;12.91;67.63
15678;BME280;7939;50.814;6.368;2023-12-29T10:36:59;99284.13;;;12.93;68.19
15678;BME280;7939;50.814;6.368;2023-12-29T10:39:28;99291.00;;;12.91;68.13
15678;BME280;7939;50.814;6.368;2023-12-29T10:42:03;99284.25;;;12.85;68.06
15678;BME280;7939;50.814;6.368;2023-12-29T10:44:32;99284.19;;;12.88;68.42
15678;BME280;7939;50.814;6.368;2023-12-29T10:46:58;99285.97;;;12.85;67.79
15678;BME280;7939;50.814;6.368;2023-12-29T10:49:25;99289.41;;;12.84;67.89
15678;BME280;7939;50.814;6.368;2023-12-29T10:51:52;99278.25;;;12.86;67.55
15678;BME280;7939;50.814;6.368;2023-12-29T10:54:20;99276.50;;;12.88;68.34
15678;BME280;7939;50.814;6.368;2023-12-29T10:57:01;99276.56;;;12.85;68.44
15678;BME280;7939;50.814;6.368;2023-12-29T10:59:29;99266.34;;;12.84;68.11
15678;BME280;7939;50.814;6.368;2023-12-29T11:01:55;99251.75;;;12.86;67.83
15678;BME280;7939;50.814;6.368;2023-12-29T11:04:22;99276.53;;;12.87;68.35
15678;BME280;7939;50.814;6.368;2023-12-29T11:06:49;99287.72;;;12.81;68.38
15678;BME280;7939;50.814;6.368;2023-12-29T11:09:27;99278.34;;;12.80;68.07
15678;BME280;7939;50.814;6.368;2023-12-29T11:11:56;99269.72;;;12.86;68.51
15678;BME280;7939;50.814;6.368;2023-12-29T11:14:25;99277.41;;;12.86;68.49
15678;BME280;7939;50.814;6.368;2023-12-29T11:16:54;99271.50;;;12.81;67.94
15678;BME280;7939;50.814;6.368;2023-12-29T11:19:21;99273.19;;;12.83;67.82
15678;BME280;7939;50.814;6.368;2023-12-29T11:21:48;99273.19;;;12.82;68.17
15678;BME280;7939;50.814;6.368;2023-12-29T11:24:18;99270.69;;;12.79;67.68
15678;BME280;7939;50.814;6.368;2023-12-29T11:26:45;99280.91;;;12.80;68.68
15678;BME280;7939;50.814;6.368;2023-12-29T11:29:12;99273.13;;;12.86;67.78
15678;BME280;7939;50.814;6.368;2023-12-29T11:31:40;99268.09;;;12.80;67.70
15678;BME280;7939;50.814;6.368;2023-12-29T11:34:10;99269.72;;;12.86;67.58
15678;BME280;7939;50.814;6.368;2023-12-29T11:36:42;99279.94;;;12.87;68.46
15678;BME280;7939;50.814;6.368;2023-12-29T11:39:18;99266.19;;;12.91;68.36
15678;BME280;7939;50.814;6.368;2023-12-29T11:41:52;99273.09;;;12.89;67.55
15678;BME280;7939;50.814;6.368;2023-12-29T11:44:24;99267.91;;;12.91;68.63
15678;BME280;7939;50.814;6.368;2023-12-29T11:46:53;99267.84;;;12.94;68.65
15678;BME280;7939;50.814;6.368;2023-12-29T11:49:19;99267.88;;;12.92;68.23
15678;BME280;7939;50.814;6.368;2023-12-29T11:51:47;99262.72;;;12.94;67.90
15678;BME280;7939;50.814;6.368;2023-12-29T11:54:21;99263.56;;;12.94;68.17
15678;BME280;7939;50.814;6.368;2023-12-29T11:56:48;99263.66;;;12.90;68.14
15678;BME280;7939;50.814;6.368;2023-12-29T11:59:16;99259.31;;;12.95;67.88
15678;BME280;7939;50.814;6.368;2023-12-29T12:01:45;99255.78;;;12.99;67.96
15678;BME280;7939;50.814;6.368;2023-12-29T12:04:35;99258.41;;;12.98;67.83
15678;BME280;7939;50.814;6.368;2023-12-29T12:07:04;99268.63;;;12.99;68.32
15678;BME280;7939;50.814;6.368;2023-12-29T12:09:32;99259.16;;;13.03;68.59
15678;BME280;7939;50.814;6.368;2023-12-29T12:12:00;99251.50;;;13.01;67.81
15678;BME280;7939;50.814;6.368;2023-12-29T12:14:48;99261.75;;;13.01;68.55
15678;BME280;7939;50.814;6.368;2023-12-29T12:17:30;99257.47;;;13.02;68.47
15678;BME280;7939;50.814;6.368;2023-12-29T12:20:00;99267.75;;;13.00;68.91
15678;BME280;7939;50.814;6.368;2023-12-29T12:22:30;99257.47;;;13.00;68.57
15678;BME280;7939;50.814;6.368;2023-12-29T12:24:57;99270.31;;;13.00;68.92
15678;BME280;7939;50.814;6.368;2023-12-29T12:27:25;99258.34;;;12.99;68.91
15678;BME280;7939;50.814;6.368;2023-12-29T12:29:53;99269.38;;;13.04;68.98
15678;BME280;7939;50.814;6.368;2023-12-29T12:32:22;99253.97;;;13.06;68.12
15678;BME280;7939;50.814;6.368;2023-12-29T12:34:48;99261.75;;;13.01;68.36
15678;BME280;7939;50.814;6.368;2023-12-29T12:37:20;99252.34;;;13.02;68.59
15678;BME280;7939;50.814;6.368;2023-12-29T12:39:46;99263.38;;;13.05;68.01
15678;BME280;7939;50.814;6.368;2023-12-29T12:42:13;99259.94;;;13.06;68.59
15678;BME280;7939;50.814;6.368;2023-12-29T12:44:42;99262.59;;;13.02;68.99
15678;BME280;7939;50.814;6.368;2023-12-29T12:47:15;99247.22;;;13.00;69.66
15678;BME280;7939;50.814;6.368;2023-12-29T12:49:43;99257.47;;;13.02;69.48
15678;BME280;7939;50.814;6.368;2023-12-29T12:52:10;99254.91;;;13.00;68.49
15678;BME280;7939;50.814;6.368;2023-12-29T12:54:38;99254.91;;;13.00;69.15
15678;BME280;7939;50.814;6.368;2023-12-29T12:57:05;99246.41;;;12.98;68.62
15678;BME280;7939;50.814;6.368;2023-12-29T12:59:32;99247.22;;;13.02;68.37
15678;BME280;7939;50.814;6.368;2023-12-29T13:01:59;99233.66;;;12.95;68.58
15678;BME280;7939;50.814;6.368;2023-12-29T13:04:26;99239.53;;;13.00;68.47
15678;BME280;7939;50.814;6.368;2023-12-29T13:06:52;99234.47;;;12.97;69.10
15678;BME280;7939;50.814;6.368;2023-12-29T13:09:19;99233.56;;;13.00;68.79
15678;BME280;7939;50.814;6.368;2023-12-29T13:11:47;99226.75;;;12.99;68.98